Time;durP1;ratioP1;P1;durP2;ratioP2;P2;SDS_P1;SDS_P2;PMS_P1;PMS_P2;Temp;Humidity;BMP_temperature;BMP_pressure;BME280_temperature;BME280_humidity;BME280_pressure;Samples;Min_cycle;Max_cycle;Signal;HPM_P1;HPM_P2
2021/06/06 00:01:39;;;;;;;;;;;;;;;23.00;48.77;101348.94;4967958;28;1338;-66
2021/06/06 00:04:09;;;;;;;;;;;;;;;23.00;48.57;101343.63;4968492;28;1079;-66
2021/06/06 00:06:37;;;;;;;;;;;;;;;23.03;48.69;101347.88;4967881;28;1402;-66
2021/06/06 00:09:07;;;;;;;;;;;;;;;23.01;48.54;101342.63;4968577;28;1960;-66
2021/06/06 00:11:35;;;;;;;;;;;;;;;22.99;48.57;101344.56;4968267;28;1324;-66
2021/06/06 00:14:04;;;;;;;;;;;;;;;23.00;48.71;101337.44;4966521;28;1072;-66
2021/06/06 00:16:33;;;;;;;;;;;;;;;22.98;48.87;101326.91;4967269;28;1296;-66
2021/06/06 00:19:00;;;;;;;;;;;;;;;23.03;48.69;101332.78;4966368;28;1576;-66
2021/06/06 00:21:30;;;;;;;;;;;;;;;23.05;48.60;101328.22;4967760;28;1296;-66
2021/06/06 00:23:57;;;;;;;;;;;;;;;23.04;48.57;101321.19;4966281;28;761;-66
2021/06/06 00:26:24;;;;;;;;;;;;;;;23.04;48.63;101326.50;4967630;28;1291;-66
2021/06/06 00:28:52;;;;;;;;;;;;;;;23.05;49.06;101322.91;4967457;28;1983;-66
2021/06/06 00:31:18;;;;;;;;;;;;;;;23.03;49.27;101319.50;4951584;28;1389;-66
2021/06/06 00:33:45;;;;;;;;;;;;;;;22.95;48.93;101320.97;4956411;28;1322;-66
2021/06/06 00:36:12;;;;;;;;;;;;;;;22.92;49.17;101321.16;4967477;28;1354;-66
2021/06/06 00:38:39;;;;;;;;;;;;;;;22.98;49.61;101316.28;4950118;28;1628;-66
2021/06/06 00:41:06;;;;;;;;;;;;;;;23.01;49.96;101312.59;4965399;28;1414;-67
2021/06/06 00:43:33;;;;;;;;;;;;;;;22.93;49.90;101309.56;4950468;28;1150;-66
2021/06/06 00:46:00;;;;;;;;;;;;;;;22.96;49.80;101307.56;4947831;28;1539;-66
2021/06/06 00:48:27;;;;;;;;;;;;;;;22.95;50.08;101311.16;4948030;28;1918;-66
2021/06/06 00:50:56;;;;;;;;;;;;;;;22.89;50.02;101311.56;4958586;28;1246;-67
2021/06/06 00:53:35;;;;;;;;;;;;;;;22.91;50.02;101311.47;4965781;28;1236;-66
2021/06/06 00:56:03;;;;;;;;;;;;;;;22.98;50.12;101304.81;4967274;28;1288;-67
2021/06/06 00:58:30;;;;;;;;;;;;;;;23.01;49.48;101302.78;4967226;28;826;-67
2021/06/06 01:01:01;;;;;;;;;;;;;;;23.04;48.56;101307.91;4965860;28;1394;-67
2021/06/06 01:03:28;;;;;;;;;;;;;;;23.05;47.65;101303.44;4965995;28;866;-67
2021/06/06 01:05:55;;;;;;;;;;;;;;;23.01;47.15;101300.13;4967752;28;1133;-66
2021/06/06 01:08:22;;;;;;;;;;;;;;;23.05;47.51;101301.63;4967006;28;1989;-67
2021/06/06 01:10:57;;;;;;;;;;;;;;;23.03;47.47;101303.56;4967177;28;1197;-67
2021/06/06 01:13:44;;;;;;;;;;;;;;;22.97;46.46;101303.97;4954222;28;1247;-67
2021/06/06 01:16:20;;;;;;;;;;;;;;;23.01;46.83;101302.78;4985968;28;1241;-67
2021/06/06 01:18:49;;;;;;;;;;;;;;;23.04;46.81;101305.22;4947852;28;1084;-67
2021/06/06 01:21:36;;;;;;;;;;;;;;;22.97;46.49;101298.66;4947539;28;1351;-68
2021/06/06 01:24:09;;;;;;;;;;;;;;;23.00;47.25;101292.28;4986612;28;1151;-67
2021/06/06 01:26:41;;;;;;;;;;;;;;;22.89;46.46;101279.69;4947985;28;1260;-67
2021/06/06 01:29:18;;;;;;;;;;;;;;;22.91;46.36;101284.91;4947245;28;1990;-66
2021/06/06 01:31:48;;;;;;;;;;;;;;;22.94;46.46;101276.75;4947834;28;1247;-66
2021/06/06 01:34:17;;;;;;;;;;;;;;;22.96;45.84;101274.81;4946582;28;1032;-66
2021/06/06 01:36:49;;;;;;;;;;;;;;;22.96;46.12;101273.03;4947611;28;1225;-66
2021/06/06 01:39:19;;;;;;;;;;;;;;;22.94;45.33;101269.63;4947406;28;1091;-66
2021/06/06 01:41:47;;;;;;;;;;;;;;;22.96;46.12;101270.38;4947588;28;1214;-66
2021/06/06 01:44:17;;;;;;;;;;;;;;;23.00;45.90;101261.25;4946088;28;846;-67
2021/06/06 01:46:46;;;;;;;;;;;;;;;22.95;44.84;101258.03;4945814;28;1551;-67
2021/06/06 01:49:14;;;;;;;;;;;;;;;22.94;44.68;101256.34;4947183;28;1903;-66
2021/06/06 01:51:43;;;;;;;;;;;;;;;22.98;44.81;101257.00;4946036;28;1265;-66
2021/06/06 01:54:12;;;;;;;;;;;;;;;22.94;44.36;101252.81;4949116;28;767;-66
2021/06/06 01:56:40;;;;;;;;;;;;;;;22.92;44.81;101258.22;4950899;28;1216;-66
2021/06/06 01:59:09;;;;;;;;;;;;;;;22.91;45.19;101253.88;4950480;28;790;-66
2021/06/06 02:01:37;;;;;;;;;;;;;;;22.97;44.03;101252.63;4949156;28;1263;-66
2021/06/06 02:04:05;;;;;;;;;;;;;;;22.95;44.30;101255.38;4950380;28;1088;-66
2021/06/06 02:06:38;;;;;;;;;;;;;;;22.90;44.03;101254.84;4950442;28;1379;-67
2021/06/06 02:09:09;;;;;;;;;;;;;;;22.82;43.85;101254.50;4950276;28;1907;-67
2021/06/06 02:11:42;;;;;;;;;;;;;;;22.90;44.33;101257.50;4950529;28;1302;-66
2021/06/06 02:14:11;;;;;;;;;;;;;;;22.94;44.20;101256.34;4950053;29;849;-66
2021/06/06 02:16:40;;;;;;;;;;;;;;;22.97;44.11;101249.97;4949588;28;1381;-66
2021/06/06 02:19:07;;;;;;;;;;;;;;;22.92;43.85;101252.09;4950174;28;739;-66
2021/06/06 02:21:34;;;;;;;;;;;;;;;22.92;43.96;101252.09;4948587;28;1463;-66
2021/06/06 02:24:03;;;;;;;;;;;;;;;22.90;44.10;101249.53;4948567;28;1367;-67
2021/06/06 02:26:33;;;;;;;;;;;;;;;22.88;44.11;101242.59;4949988;28;1273;-66
2021/06/06 02:28:59;;;;;;;;;;;;;;;22.82;44.31;101243.88;4949740;28;1911;-66
2021/06/06 02:31:37;;;;;;;;;;;;;;;22.90;44.90;101244.22;4950028;29;1296;-66
2021/06/06 02:34:11;;;;;;;;;;;;;;;22.88;44.17;101245.25;4949926;28;1095;-66
2021/06/06 02:36:40;;;;;;;;;;;;;;;22.81;44.27;101239.50;4950174;29;1265;-66
2021/06/06 02:39:09;;;;;;;;;;;;;;;22.85;44.45;101236.56;4950177;28;790;-66
2021/06/06 02:41:45;;;;;;;;;;;;;;;22.83;44.90;101237.59;4950260;28;1261;-66
2021/06/06 02:44:19;;;;;;;;;;;;;;;22.86;44.91;101235.59;4948387;28;1220;-66
2021/06/06 02:46:48;;;;;;;;;;;;;;;22.86;45.10;101237.38;4950373;28;1448;-66
2021/06/06 02:49:17;;;;;;;;;;;;;;;22.80;46.32;101232.47;4950323;28;1978;-66
2021/06/06 02:51:46;;;;;;;;;;;;;;;22.77;46.73;101225.56;4950083;28;1360;-66
2021/06/06 02:54:19;;;;;;;;;;;;;;;22.82;47.24;101227.94;4949629;29;1104;-66
2021/06/06 02:56:49;;;;;;;;;;;;;;;22.80;47.52;101222.72;4949991;28;1233;-66
2021/06/06 02:59:23;;;;;;;;;;;;;;;22.86;48.26;101229.41;4950022;28;916;-66
2021/06/06 03:01:52;;;;;;;;;;;;;;;22.84;48.56;101226.88;4949769;28;1346;-66
2021/06/06 03:04:21;;;;;;;;;;;;;;;22.87;48.83;101217.84;4949378;28;751;-66
2021/06/06 03:06:51;;;;;;;;;;;;;;;22.89;49.04;101223.06;4949478;28;1255;-66
2021/06/06 03:09:20;;;;;;;;;;;;;;;22.83;49.00;101227.81;4949302;28;1977;-66
2021/06/06 03:11:49;;;;;;;;;;;;;;;22.83;49.51;101226.97;4949639;28;1190;-66
2021/06/06 03:14:20;;;;;;;;;;;;;;;22.90;49.26;101228.25;4949573;28;805;-66
2021/06/06 03:16:58;;;;;;;;;;;;;;;22.85;51.17;101223.28;4947739;29;1360;-66
2021/06/06 03:19:27;;;;;;;;;;;;;;;22.88;49.55;101224.88;4949182;29;1163;-66
2021/06/06 03:21:54;;;;;;;;;;;;;;;22.80;49.64;101224.50;4949518;28;1276;-66
2021/06/06 03:24:27;;;;;;;;;;;;;;;22.85;49.62;101227.72;4949590;28;704;-66
2021/06/06 03:26:54;;;;;;;;;;;;;;;22.87;50.26;101228.47;4949550;28;1276;-67
2021/06/06 03:29:24;;;;;;;;;;;;;;;22.81;49.75;101223.56;4947428;28;1975;-66
2021/06/06 03:31:54;;;;;;;;;;;;;;;22.80;49.98;101221.84;4949001;28;1256;-66
2021/06/06 03:34:21;;;;;;;;;;;;;;;22.84;51.05;101221.56;4948337;28;810;-66
2021/06/06 03:36:48;;;;;;;;;;;;;;;22.83;50.75;101214.53;4947754;28;1257;-66
2021/06/06 03:39:16;;;;;;;;;;;;;;;22.81;50.47;101218.25;4948088;28;830;-67
2021/06/06 03:41:45;;;;;;;;;;;;;;;22.81;50.87;101215.59;4947680;28;1461;-66
2021/06/06 03:44:12;;;;;;;;;;;;;;;22.82;50.78;101217.31;4947523;28;1060;-66
2021/06/06 03:46:39;;;;;;;;;;;;;;;22.78;50.73;101219.31;4949230;28;1450;-66
2021/06/06 03:49:06;;;;;;;;;;;;;;;22.84;50.91;101224.22;4948713;28;1907;-66
2021/06/06 03:51:33;;;;;;;;;;;;;;;22.74;50.81;101224.91;4949087;28;1301;-66
2021/06/06 03:54:00;;;;;;;;;;;;;;;22.72;51.07;101227.69;4948741;28;771;-66
2021/06/06 03:56:27;;;;;;;;;;;;;;;22.73;50.60;101223.22;4948963;28;1265;-66
2021/06/06 03:58:54;;;;;;;;;;;;;;;22.74;50.54;101225.78;4948901;28;738;-66
2021/06/06 04:01:20;;;;;;;;;;;;;;;22.69;50.64;101219.06;4948449;28;1343;-65
2021/06/06 04:03:47;;;;;;;;;;;;;;;22.66;50.52;101224.59;4948898;28;724;-65
2021/06/06 04:06:14;;;;;;;;;;;;;;;22.75;51.55;101221.31;4948969;28;1229;-65
2021/06/06 04:08:41;;;;;;;;;;;;;;;22.74;50.81;101227.56;4948395;28;806;-65
2021/06/06 04:11:08;;;;;;;;;;;;;;;22.74;50.67;101230.22;4946714;28;1910;-65
2021/06/06 04:13:35;;;;;;;;;;;;;;;22.77;50.87;101227.38;4954574;28;1563;-65
2021/06/06 04:16:02;;;;;;;;;;;;;;;22.76;50.50;101220.38;4967355;28;1359;-65
2021/06/06 04:18:30;;;;;;;;;;;;;;;22.74;50.59;101222.25;4961518;28;1487;-65
2021/06/06 04:20:59;;;;;;;;;;;;;;;22.69;50.85;101219.06;4957265;28;1129;-66
2021/06/06 04:23:26;;;;;;;;;;;;;;;22.77;50.99;101222.06;4957704;28;1343;-65
2021/06/06 04:25:54;;;;;;;;;;;;;;;22.74;50.38;101219.59;4947770;28;883;-65
2021/06/06 04:28:22;;;;;;;;;;;;;;;22.70;49.73;101220.78;4947340;28;1181;-65
2021/06/06 04:30:49;;;;;;;;;;;;;;;22.69;50.00;101224.38;4948535;28;1970;-65
2021/06/06 04:33:16;;;;;;;;;;;;;;;22.71;49.60;101222.47;4958233;28;1332;-65
2021/06/06 04:35:44;;;;;;;;;;;;;;;22.74;51.13;101222.25;4967877;28;1076;-65
2021/06/06 04:38:13;;;;;;;;;;;;;;;22.73;49.98;101216.13;4967273;28;1206;-65
2021/06/06 04:40:39;;;;;;;;;;;;;;;22.70;49.90;101223.44;4967453;28;1093;-65
2021/06/06 04:43:07;;;;;;;;;;;;;;;22.73;49.71;101225.88;4965972;28;1371;-65
2021/06/06 04:45:33;;;;;;;;;;;;;;;22.72;49.77;101227.69;4967391;28;1387;-66
2021/06/06 04:48:06;;;;;;;;;;;;;;;22.65;49.73;101225.53;4960584;28;1542;-67
2021/06/06 04:50:33;;;;;;;;;;;;;;;22.55;50.12;101230.59;4949737;28;1906;-68
2021/06/06 04:53:02;;;;;;;;;;;;;;;22.54;50.18;101235.97;5006830;28;1336;-68
2021/06/06 04:55:28;;;;;;;;;;;;;;;22.54;50.26;101242.16;4947388;28;1158;-66
2021/06/06 04:57:55;;;;;;;;;;;;;;;22.56;50.01;101250.00;4945809;28;1213;-67
2021/06/06 05:00:25;;;;;;;;;;;;;;;22.56;50.18;101242.03;4946855;28;1163;-67
2021/06/06 05:02:52;;;;;;;;;;;;;;;22.57;50.58;101251.72;4945678;28;1342;-68
2021/06/06 05:05:19;;;;;;;;;;;;;;;22.56;50.52;101255.31;4947109;28;1077;-67
2021/06/06 05:07:53;;;;;;;;;;;;;;;22.58;50.92;101250.75;4946792;28;1229;-67
2021/06/06 05:10:22;;;;;;;;;;;;;;;22.61;50.97;101261.19;4945596;28;1973;-66
2021/06/06 05:12:49;;;;;;;;;;;;;;;22.61;51.29;101253.22;4945757;28;1198;-68
2021/06/06 05:15:16;;;;;;;;;;;;;;;22.62;51.05;101260.22;4945400;28;1218;-68
2021/06/06 05:17:43;;;;;;;;;;;;;;;22.61;51.20;101262.03;4946869;28;1221;-70
2021/06/06 05:20:11;;;;;;;;;;;;;;;22.63;50.93;101257.47;4946073;28;1381;-68
2021/06/06 05:22:38;;;;;;;;;;;;;;;22.64;51.21;101258.31;4948084;28;1332;-69
2021/06/06 05:25:05;;;;;;;;;;;;;;;22.66;51.31;101261.75;4962265;28;1103;-68
2021/06/06 05:27:32;;;;;;;;;;;;;;;22.58;51.86;101264.03;4967309;28;1303;-68
2021/06/06 05:29:59;;;;;;;;;;;;;;;22.60;52.09;101267.44;4967814;28;1906;-69
2021/06/06 05:32:26;;;;;;;;;;;;;;;22.59;52.66;101273.69;4967836;28;1300;-69
2021/06/06 05:34:53;;;;;;;;;;;;;;;22.55;53.34;101277.50;4969347;28;948;-69
2021/06/06 05:37:19;;;;;;;;;;;;;;;22.56;53.16;101281.84;4968043;28;1319;-68
2021/06/06 05:39:46;;;;;;;;;;;;;;;22.58;53.59;101286.13;4969224;28;1108;-72
2021/06/06 05:42:13;;;;;;;;;;;;;;;22.61;53.41;101290.38;4969474;28;1260;-67
2021/06/06 05:44:40;;;;;;;;;;;;;;;22.67;53.46;101292.69;4969116;28;784;-74
2021/06/06 05:47:07;;;;;;;;;;;;;;;22.70;53.62;101292.47;4963898;28;1505;-69
2021/06/06 05:49:34;;;;;;;;;;;;;;;22.68;53.46;101297.03;4958191;28;1906;-70
2021/06/06 05:52:00;;;;;;;;;;;;;;;22.71;53.27;101294.16;4950107;28;1387;-69
2021/06/06 05:54:27;;;;;;;;;;;;;;;22.75;53.19;101295.69;4949595;28;834;-68
2021/06/06 05:56:54;;;;;;;;;;;;;;;22.73;53.42;101300.25;4949919;28;1269;-68
2021/06/06 05:59:20;;;;;;;;;;;;;;;22.75;52.87;101301.00;4932586;28;1245;-67
2021/06/06 06:01:47;;;;;;;;;;;;;;;22.74;52.93;101307.25;4949758;28;1374;-67
2021/06/06 06:04:14;;;;;;;;;;;;;;;22.71;52.86;101313.63;4948071;28;1210;-68
2021/06/06 06:06:40;;;;;;;;;;;;;;;22.71;53.16;101318.06;4948304;28;1269;-66
2021/06/06 06:09:07;;;;;;;;;;;;;;;22.76;53.22;101322.16;4950012;28;866;-68
2021/06/06 06:11:35;;;;;;;;;;;;;;;22.73;53.74;101324.16;4949786;28;1923;-68
2021/06/06 06:14:02;;;;;;;;;;;;;;;22.74;54.49;101334.66;4972906;28;1823;-66
2021/06/06 06:16:32;;;;;;;;;;;;;;;22.81;54.08;101329.81;5000448;28;1292;-64
2021/06/06 06:19:01;;;;;;;;;;;;;;;22.79;55.02;101337.03;4986799;28;1294;-64
2021/06/06 06:21:30;;;;;;;;;;;;;;;22.70;55.85;101340.28;4937718;28;1530;-65
2021/06/06 06:23:57;;;;;;;;;;;;;;;22.65;57.04;101347.66;4999862;28;1244;-62
2021/06/06 06:26:24;;;;;;;;;;;;;;;22.55;58.42;101343.88;4947928;28;1280;-64
2021/06/06 06:28:51;;;;;;;;;;;;;;;22.41;59.71;101335.94;4957921;28;1507;-64
2021/06/06 06:31:17;;;;;;;;;;;;;;;22.29;60.95;101332.25;4973909;28;1910;-64
2021/06/06 06:33:45;;;;;;;;;;;;;;;22.25;61.53;101326.28;4987161;28;916;-64
2021/06/06 06:36:14;;;;;;;;;;;;;;;22.24;62.19;101332.56;4984074;28;1513;-64
2021/06/06 06:38:41;;;;;;;;;;;;;;;22.21;62.49;101335.38;4967078;28;1072;-64
2021/06/06 06:41:08;;;;;;;;;;;;;;;22.18;62.06;101343.53;4966992;28;1273;-64
2021/06/06 06:43:35;;;;;;;;;;;;;;;22.25;61.63;101347.50;4976167;28;1228;-65
2021/06/06 06:46:02;;;;;;;;;;;;;;;22.15;62.20;101346.38;5068425;28;1435;-66
2021/06/06 06:48:32;;;;;;;;;;;;;;;22.10;62.57;101344.97;4970470;28;1542;-63
2021/06/06 06:50:59;;;;;;;;;;;;;;;22.18;62.43;101334.72;4970859;28;1918;-65
2021/06/06 06:53:26;;;;;;;;;;;;;;;22.16;62.35;101340.13;4984352;28;1312;-66
2021/06/06 06:55:53;;;;;;;;;;;;;;;22.09;62.62;101346.75;4984294;28;1264;-65
2021/06/06 06:58:20;;;;;;;;;;;;;;;22.10;62.12;101352.94;4986082;28;1244;-65
2021/06/06 07:00:48;;;;;;;;;;;;;;;22.08;61.88;101350.34;4985811;28;1140;-65
2021/06/06 07:03:17;;;;;;;;;;;;;;;22.09;62.03;101352.06;4985749;28;1292;-65
2021/06/06 07:05:44;;;;;;;;;;;;;;;22.12;62.10;101354.53;4984436;28;1568;-65
2021/06/06 07:08:12;;;;;;;;;;;;;;;22.07;62.78;101364.56;4985561;28;1264;-66
2021/06/06 07:10:41;;;;;;;;;;;;;;;22.08;62.25;101360.97;4983194;28;1938;-63
2021/06/06 07:13:08;;;;;;;;;;;;;;;22.04;61.66;101351.47;4985912;28;1331;-64
2021/06/06 07:15:40;;;;;;;;;;;;;;;22.08;61.24;101350.34;4984447;28;1826;-65
2021/06/06 07:18:08;;;;;;;;;;;;;;;22.02;61.54;101349.88;4984211;28;1315;-66
2021/06/06 07:20:36;;;;;;;;;;;;;;;22.03;61.60;101348.94;4984405;28;1244;-65
2021/06/06 07:23:04;;;;;;;;;;;;;;;22.07;61.88;101353.13;4985568;28;1307;-65
2021/06/06 07:25:31;;;;;;;;;;;;;;;22.09;62.59;101354.72;4985892;28;1153;-65
2021/06/06 07:27:58;;;;;;;;;;;;;;;22.15;62.42;101359.66;4985457;28;1351;-64
2021/06/06 07:30:28;;;;;;;;;;;;;;;22.14;61.98;101363.25;4985886;28;1915;-63
2021/06/06 07:32:55;;;;;;;;;;;;;;;22.10;62.44;101361.72;4985634;28;1296;-64
2021/06/06 07:35:23;;;;;;;;;;;;;;;22.13;61.78;101361.53;4985854;28;1100;-65
2021/06/06 07:37:50;;;;;;;;;;;;;;;22.17;61.24;101359.53;4985644;28;1240;-65
2021/06/06 07:40:18;;;;;;;;;;;;;;;22.18;60.42;101359.47;4985217;28;1163;-66
2021/06/06 07:42:44;;;;;;;;;;;;;;;22.16;60.66;101361.34;4984362;28;1213;-65
2021/06/06 07:45:13;;;;;;;;;;;;;;;22.16;60.96;101357.84;4985193;28;1591;-65
2021/06/06 07:47:42;;;;;;;;;;;;;;;22.15;60.21;101370.28;4967703;28;1522;-65
2021/06/06 07:50:11;;;;;;;;;;;;;;;22.16;59.61;101368.47;4951682;28;1974;-65
2021/06/06 07:52:38;;;;;;;;;;;;;;;22.10;59.36;101367.03;4945200;28;1574;-65
2021/06/06 07:55:07;;;;;;;;;;;;;;;22.10;59.73;101364.38;4956919;28;1557;-65
2021/06/06 07:57:34;;;;;;;;;;;;;;;22.21;59.75;101372.53;4986230;28;1221;-66
2021/06/06 08:00:01;;;;;;;;;;;;;;;22.21;59.32;101367.25;4984748;28;1192;-65
2021/06/06 08:02:28;;;;;;;;;;;;;;;22.27;58.81;101361.53;4982991;28;1682;-62
2021/06/06 08:04:54;;;;;;;;;;;;;;;22.33;59.11;101366.47;4985627;28;1038;-64
2021/06/06 08:07:22;;;;;;;;;;;;;;;22.48;59.62;101353.19;4977925;28;1522;-63
2021/06/06 08:09:48;;;;;;;;;;;;;;;22.66;58.97;101362.66;4951376;28;870;-66
2021/06/06 08:12:15;;;;;;;;;;;;;;;22.67;59.17;101364.38;4955989;28;1943;-65
2021/06/06 08:14:42;;;;;;;;;;;;;;;22.76;58.85;101362.00;4965597;28;1158;-66
2021/06/06 08:17:09;;;;;;;;;;;;;;;22.74;58.66;101361.22;4948871;28;1292;-65
2021/06/06 08:19:36;;;;;;;;;;;;;;;22.74;58.80;101363.03;4966155;28;933;-63
2021/06/06 08:22:03;;;;;;;;;;;;;;;22.76;58.88;101359.34;4968038;28;1360;-64
2021/06/06 08:24:30;;;;;;;;;;;;;;;22.88;59.12;101359.50;4966107;28;975;-68
2021/06/06 08:26:57;;;;;;;;;;;;;;;22.83;58.79;101362.44;4967452;28;1390;-69
2021/06/06 08:29:23;;;;;;;;;;;;;;;22.81;58.84;101351.06;4962292;28;1028;-69
2021/06/06 08:31:52;;;;;;;;;;;;;;;22.88;58.99;101352.38;4948323;28;1981;-73
2021/06/06 08:34:21;;;;;;;;;;;;;;;22.92;58.64;101353.88;4948218;28;785;-72
2021/06/06 08:36:48;;;;;;;;;;;;;;;22.95;58.48;101348.34;4946513;28;1911;-68
2021/06/06 08:39:18;;;;;;;;;;;;;;;22.95;58.47;101353.66;4947875;28;815;-77
2021/06/06 08:41:57;;;;;;;;;;;;;;;22.97;58.56;101346.47;4948867;28;1193;-73
2021/06/06 08:44:33;;;;;;;;;;;;;;;22.95;57.96;101347.53;4948337;28;771;-73
2021/06/06 08:47:23;;;;;;;;;;;;;;;22.96;58.55;101344.75;4931026;28;1733;-79
2021/06/06 08:49:51;;;;;;;;;;;;;;;23.01;58.39;101344.47;4948199;28;1041;-73
2021/06/06 08:52:37;;;;;;;;;;;;;;;23.02;58.31;101341.69;4948360;28;1910;-76
2021/06/06 08:55:33;;;;;;;;;;;;;;;23.04;58.35;101342.44;4948102;28;1145;-75
2021/06/06 08:58:19;;;;;;;;;;;;;;;23.10;57.20;101334.06;5032316;28;1366;-71
2021/06/06 09:00:49;;;;;;;;;;;;;;;23.08;57.24;101343.94;4948081;28;1368;-77
2021/06/06 09:03:22;;;;;;;;;;;;;;;23.08;57.05;101343.09;4950212;28;1480;-67
2021/06/06 09:05:57;;;;;;;;;;;;;;;23.11;57.37;101342.88;4957494;28;1266;-67
2021/06/06 09:08:25;;;;;;;;;;;;;;;23.12;56.51;101340.16;4961985;28;1551;-67
2021/06/06 09:10:54;;;;;;;;;;;;;;;23.10;56.79;101339.38;4949580;28;1988;-65
2021/06/06 09:13:22;;;;;;;;;;;;;;;23.10;57.15;101343.88;4950002;28;1287;-67
2021/06/06 09:15:49;;;;;;;;;;;;;;;23.09;56.96;101335.03;4949554;28;1180;-66
2021/06/06 09:18:21;;;;;;;;;;;;;;;23.12;56.86;101333.97;4949092;28;1257;-71
2021/06/06 09:20:49;;;;;;;;;;;;;;;23.15;56.24;101329.31;4949704;28;1052;-72
2021/06/06 09:23:19;;;;;;;;;;;;;;;23.17;55.84;101337.16;4949453;28;1345;-71
2021/06/06 09:25:53;;;;;;;;;;;;;;;23.15;55.26;101331.13;4949529;28;1080;-71
2021/06/06 09:28:22;;;;;;;;;;;;;;;23.11;55.02;101332.25;4951092;29;1383;-71
2021/06/06 09:30:59;;;;;;;;;;;;;;;23.14;54.37;101332.91;4950803;28;1910;-71
2021/06/06 09:33:28;;;;;;;;;;;;;;;23.15;54.04;101336.44;4949515;28;1644;-71
2021/06/06 09:35:56;;;;;;;;;;;;;;;23.13;53.51;101336.50;4951064;28;911;-72
2021/06/06 09:38:29;;;;;;;;;;;;;;;23.14;53.31;101330.25;4950879;28;1329;-73
2021/06/06 09:41:07;;;;;;;;;;;;;;;23.15;53.41;101329.31;4951144;28;1057;-74
2021/06/06 09:43:34;;;;;;;;;;;;;;;23.15;53.40;101329.31;4949700;28;1258;-74
2021/06/06 09:46:06;;;;;;;;;;;;;;;23.15;53.47;101325.81;4950921;28;1778;-74
2021/06/06 09:48:39;;;;;;;;;;;;;;;;;;4951087;28;806;-75
2021/06/06 09:51:11;;;;;;;;;;;;;;;23.17;53.33;101327.41;4950984;28;1907;-72
2021/06/06 09:53:39;;;;;;;;;;;;;;;23.19;53.27;101320.16;4950877;28;853;-75
2021/06/06 09:56:09;;;;;;;;;;;;;;;23.15;53.42;101324.00;4950653;28;1363;-75
2021/06/06 09:58:38;;;;;;;;;;;;;;;23.15;53.56;101318.69;4950815;28;942;-76
2021/06/06 10:01:25;;;;;;;;;;;;;;;23.19;52.87;101322.00;4950639;28;1252;-75
2021/06/06 10:03:55;;;;;;;;;;;;;;;23.24;51.45;101327.84;4950218;28;1285;-73
2021/06/06 10:06:34;;;;;;;;;;;;;;;23.26;51.67;101318.81;4950459;29;1244;-74
2021/06/06 10:09:12;;;;;;;;;;;;;;;23.26;51.56;101324.13;4950029;28;831;-74
2021/06/06 10:11:58;;;;;;;;;;;;;;;23.23;51.23;101323.47;4948917;28;1934;-74
2021/06/06 10:14:31;;;;;;;;;;;;;;;23.21;51.74;101318.28;4947719;28;1301;-75
2021/06/06 10:17:00;;;;;;;;;;;;;;;23.20;51.54;101313.91;4950007;28;1328;-75
2021/06/06 10:19:33;;;;;;;;;;;;;;;23.19;51.35;101327.31;4948454;28;1150;-73
2021/06/06 10:22:03;;;;;;;;;;;;;;;23.19;50.87;101319.34;4949827;29;1523;-73
2021/06/06 10:24:34;;;;;;;;;;;;;;;23.20;50.94;101321.88;4950093;28;787;-73
2021/06/06 10:27:15;;;;;;;;;;;;;;;23.18;50.60;101323.78;4950393;28;1261;-73
2021/06/06 10:29:45;;;;;;;;;;;;;;;23.16;51.24;101320.38;4950048;28;759;-75
2021/06/06 10:32:24;;;;;;;;;;;;;;;23.19;51.52;101330.78;4950610;28;1982;-74
2021/06/06 10:34:55;;;;;;;;;;;;;;;23.18;50.91;101333.56;4958552;28;1182;-75
2021/06/06 10:37:24;;;;;;;;;;;;;;;23.19;50.96;101335.28;4948321;28;1367;-74
2021/06/06 10:39:53;;;;;;;;;;;;;;;23.19;51.14;101322.81;4949976;28;954;-73
2021/06/06 10:42:42;;;;;;;;;;;;;;;23.24;51.54;101322.53;4948594;28;1292;-74
2021/06/06 10:45:23;;;;;;;;;;;;;;;23.20;50.93;101316.56;4949799;28;1256;-74
2021/06/06 10:47:52;;;;;;;;;;;;;;;23.19;50.82;101317.50;4948117;28;1347;-73
2021/06/06 10:50:22;;;;;;;;;;;;;;;23.19;51.42;101317.50;4949544;28;1110;-73
2021/06/06 10:52:50;;;;;;;;;;;;;;;23.20;50.78;101321.88;4932551;28;1911;-72
2021/06/06 10:55:26;;;;;;;;;;;;;;;23.20;51.22;101313.91;4964273;28;1238;-74
2021/06/06 10:57:52;;;;;;;;;;;;;;;23.20;51.66;101313.03;4963532;28;1335;-74
2021/06/06 11:00:19;;;;;;;;;;;;;;;23.24;51.91;101311.91;4968755;28;1154;-73
2021/06/06 11:02:49;;;;;;;;;;;;;;;23.22;52.09;101308.50;4968610;28;1304;-75
2021/06/06 11:05:34;;;;;;;;;;;;;;;23.24;51.32;101309.25;4951190;28;1421;-73
2021/06/06 11:08:36;;;;;;;;;;;;;;;23.23;52.15;101308.38;4967236;28;1241;-75
2021/06/06 11:11:09;;;;;;;;;;;;;;;23.26;51.94;101302.00;4969075;28;1973;-75
2021/06/06 11:13:36;;;;;;;;;;;;;;;23.25;52.21;101289.69;4967314;28;759;-75
2021/06/06 11:16:19;;;;;;;;;;;;;;;23.25;52.71;101282.56;4968966;28;1379;-75
2021/06/06 11:18:47;;;;;;;;;;;;;;;23.25;52.84;101277.25;4968429;28;795;-72
2021/06/06 11:21:14;;;;;;;;;;;;;;;23.32;52.24;101277.66;4958553;28;1401;-69
2021/06/06 11:23:48;;;;;;;;;;;;;;;23.36;52.11;101279.16;4950384;28;826;-68
2021/06/06 11:26:22;;;;;;;;;;;;;;;23.41;51.45;101276.25;4947831;28;1531;-74
2021/06/06 11:28:52;;;;;;;;;;;;;;;23.46;52.24;101274.13;4959770;28;807;-80
2021/06/06 11:31:21;;;;;;;;;;;;;;;23.45;51.95;101272.41;4947457;28;1911;-78
2021/06/06 11:33:54;;;;;;;;;;;;;;;23.54;50.88;101271.78;4949639;28;1560;-81
2021/06/06 11:36:30;;;;;;;;;;;;;;;23.51;50.50;101266.66;4966596;28;1245;-73
2021/06/06 11:39:08;;;;;;;;;;;;;;;23.50;50.75;101264.97;4967481;28;778;-81
2021/06/06 11:41:37;;;;;;;;;;;;;;;23.46;51.71;101264.34;4967794;28;1236;-79
2021/06/06 11:44:33;;;;;;;;;;;;;;;23.53;51.42;101262.94;4966341;28;1064;-75
2021/06/06 11:47:15;;;;;;;;;;;;;;;23.54;51.91;101266.44;4984026;28;1484;-77
2021/06/06 11:49:42;;;;;;;;;;;;;;;23.57;50.76;101258.25;4968140;28;845;-81
2021/06/06 11:52:34;;;;;;;;;;;;;;;23.52;50.50;101244.44;4966849;28;1997;-74
2021/06/06 11:55:07;;;;;;;;;;;;;;;23.58;50.01;101241.38;4968809;28;1046;-80
2021/06/06 11:57:38;;;;;;;;;;;;;;;23.60;50.46;101244.75;4967107;28;1423;-75
2021/06/06 12:00:20;;;;;;;;;;;;;;;23.55;50.18;101242.44;4968090;28;1095;-72
2021/06/06 12:02:47;;;;;;;;;;;;;;;23.65;50.50;101242.66;4966725;28;1351;-66
2021/06/06 12:05:23;;;;;;;;;;;;;;;23.59;49.83;101238.56;4968205;28;1052;-66
2021/06/06 12:08:12;;;;;;;;;;;;;;;23.57;49.82;101229.88;4967803;28;1288;-66
2021/06/06 12:10:54;;;;;;;;;;;;;;;23.58;50.86;101225.41;4966352;28;1272;-67
2021/06/06 12:13:24;;;;;;;;;;;;;;;23.62;50.69;101217.09;4950401;28;1910;-68
2021/06/06 12:16:02;;;;;;;;;;;;;;;23.66;50.30;101218.59;4967847;28;1030;-66
2021/06/06 12:18:31;;;;;;;;;;;;;;;23.68;50.79;101215.84;4967746;28;875;-67
2021/06/06 12:21:00;;;;;;;;;;;;;;;23.73;50.20;101208.38;4968203;28;1115;-66
2021/06/06 12:23:35;;;;;;;;;;;;;;;23.76;50.18;101214.34;4961217;28;1598;-67
2021/06/06 12:26:17;;;;;;;;;;;;;;;23.78;50.67;101203.56;4949144;28;1565;-67
2021/06/06 12:28:50;;;;;;;;;;;;;;;23.86;50.67;101201.22;4958133;28;1201;-66
2021/06/06 12:31:35;;;;;;;;;;;;;;;24.00;50.36;101194.91;4966455;28;1906;-62
2021/06/06 12:34:11;;;;;;;;;;;;;;;23.99;52.24;101209.16;4950905;28;1668;-76
2021/06/06 12:36:43;;;;;;;;;;;;;;;23.94;52.39;101212.16;4965852;28;1288;-74
2021/06/06 12:39:15;;;;;;;;;;;;;;;23.99;52.27;101201.19;4964845;28;1390;-74
2021/06/06 12:41:45;;;;;;;;;;;;;;;24.03;52.26;101208.00;4961670;28;1575;-79
2021/06/06 12:44:16;;;;;;;;;;;;;;;23.90;51.98;101210.69;4969918;28;1727;-65
2021/06/06 12:46:48;;;;;;;;;;;;;;;23.82;52.29;101203.25;4947648;28;1459;-66
2021/06/06 12:49:30;;;;;;;;;;;;;;;23.85;52.09;101207.50;4961383;28;1305;-66
2021/06/06 12:51:58;;;;;;;;;;;;;;;23.84;51.98;101211.13;4938597;28;1919;-71
2021/06/06 12:54:30;;;;;;;;;;;;;;;23.80;51.92;101202.50;4958039;28;1328;-68
2021/06/06 12:57:08;;;;;;;;;;;;;;;23.79;52.08;101208.78;4954185;28;1382;-67
2021/06/06 12:59:38;;;;;;;;;;;;;;;23.81;52.28;101203.34;4954769;28;1258;-66
2021/06/06 13:02:08;;;;;;;;;;;;;;;23.86;51.72;101209.22;4959188;28;1414;-66
2021/06/06 13:04:40;;;;;;;;;;;;;;;23.84;51.95;101211.13;4955121;28;1241;-67